sensor_id;sensor_type;location;lat;lon;timestamp;pressure;altitude;pressure_sealevel;temperature;humidity
75290;BME280;63883;48.996;20.804;2023-04-25T00:01:20;95402.84;;;9.54;100.00
75290;BME280;63883;48.996;20.804;2023-04-25T00:03:47;95402.78;;;9.55;100.00
75290;BME280;63883;48.996;20.804;2023-04-25T00:06:13;95407.81;;;9.57;100.00
75290;BME280;63883;48.996;20.804;2023-04-25T00:08:39;95406.09;;;9.57;100.00
75290;BME280;63883;48.996;20.804;2023-04-25T00:11:05;95396.75;;;9.58;100.00
75290;BME280;63883;48.996;20.804;2023-04-25T00:13:31;95397.56;;;9.58;100.00
75290;BME280;63883;48.996;20.804;2023-04-25T00:15:57;95398.47;;;9.57;100.00
75290;BME280;63883;48.996;20.804;2023-04-25T00:18:23;95392.41;;;9.60;100.00
75290;BME280;63883;48.996;20.804;2023-04-25T00:20:49;95396.59;;;9.61;100.00
75290;BME280;63883;48.996;20.804;2023-04-25T00:23:16;95389.75;;;9.63;100.00
75290;BME280;63883;48.996;20.804;2023-04-25T00:25:44;95384.66;;;9.63;100.00
75290;BME280;63883;48.996;20.804;2023-04-25T00:28:11;95386.22;;;9.65;100.00
75290;BME280;63883;48.996;20.804;2023-04-25T00:30:37;95390.50;;;9.65;100.00
75290;BME280;63883;48.996;20.804;2023-04-25T00:33:03;95385.41;;;9.65;100.00
75290;BME280;63883;48.996;20.804;2023-04-25T00:35:29;95376.97;;;9.64;100.00
75290;BME280;63883;48.996;20.804;2023-04-25T00:37:55;95387.81;;;9.68;100.00
75290;BME280;63883;48.996;20.804;2023-04-25T00:40:21;95385.28;;;9.68;100.00
75290;BME280;63883;48.996;20.804;2023-04-25T00:42:47;95381.84;;;9.69;100.00
75290;BME280;63883;48.996;20.804;2023-04-25T00:45:14;95375.78;;;9.71;100.00
75290;BME280;63883;48.996;20.804;2023-04-25T00:47:41;95375.97;;;9.67;100.00
75290;BME280;63883;48.996;20.804;2023-04-25T00:50:08;95382.88;;;9.65;100.00
75290;BME280;63883;48.996;20.804;2023-04-25T00:52:35;95377.91;;;9.62;100.00
75290;BME280;63883;48.996;20.804;2023-04-25T00:55:01;95374.59;;;9.60;100.00
75290;BME280;63883;48.996;20.804;2023-04-25T00:57:26;95371.16;;;9.61;100.00
75290;BME280;63883;48.996;20.804;2023-04-25T00:59:52;95380.56;;;9.59;100.00
75290;BME280;63883;48.996;20.804;2023-04-25T01:02:19;95361.25;;;9.55;100.00
75290;BME280;63883;48.996;20.804;2023-04-25T01:04:47;95367.94;;;9.57;100.00
75290;BME280;63883;48.996;20.804;2023-04-25T01:07:13;95364.56;;;9.57;100.00
75290;BME280;63883;48.996;20.804;2023-04-25T01:09:39;95357.81;;;9.56;100.00
75290;BME280;63883;48.996;20.804;2023-04-25T01:12:06;95367.09;;;9.57;100.00
75290;BME280;63883;48.996;20.804;2023-04-25T01:14:32;95366.31;;;9.55;100.00
75290;BME280;63883;48.996;20.804;2023-04-25T01:16:58;95362.97;;;9.54;100.00
75290;BME280;63883;48.996;20.804;2023-04-25T01:19:24;95358.06;;;9.50;100.00
75290;BME280;63883;48.996;20.804;2023-04-25T01:21:50;95365.72;;;9.50;100.00
75290;BME280;63883;48.996;20.804;2023-04-25T01:24:16;95362.41;;;9.48;100.00
75290;BME280;63883;48.996;20.804;2023-04-25T01:26:42;95369.19;;;9.47;100.00
75290;BME280;63883;48.996;20.804;2023-04-25T01:29:19;95367.47;;;9.48;100.00
75290;BME280;63883;48.996;20.804;2023-04-25T01:31:46;95366.66;;;9.47;100.00
75290;BME280;63883;48.996;20.804;2023-04-25T01:34:12;95365.72;;;9.50;100.00
75290;BME280;63883;48.996;20.804;2023-04-25T01:36:38;95355.38;;;9.53;100.00
75290;BME280;63883;48.996;20.804;2023-04-25T01:39:04;95359.59;;;9.54;100.00
75290;BME280;63883;48.996;20.804;2023-04-25T01:41:30;95355.31;;;9.54;100.00
75290;BME280;63883;48.996;20.804;2023-04-25T01:43:56;95360.34;;;9.56;100.00
75290;BME280;63883;48.996;20.804;2023-04-25T01:46:22;95357.81;;;9.56;100.00
75290;BME280;63883;48.996;20.804;2023-04-25T01:48:48;95351.88;;;9.55;100.00
75290;BME280;63883;48.996;20.804;2023-04-25T01:51:14;95350.09;;;9.57;100.00
75290;BME280;63883;48.996;20.804;2023-04-25T01:53:41;95361.84;;;9.60;100.00
75290;BME280;63883;48.996;20.804;2023-04-25T01:56:07;95352.44;;;9.62;100.00
75290;BME280;63883;48.996;20.804;2023-04-25T01:58:33;95354.09;;;9.63;100.00
75290;BME280;63883;48.996;20.804;2023-04-25T02:00:59;95353.22;;;9.64;100.00
75290;BME280;63883;48.996;20.804;2023-04-25T02:03:25;95353.13;;;9.65;100.00
75290;BME280;63883;48.996;20.804;2023-04-25T02:05:51;95355.66;;;9.65;100.00
75290;BME280;63883;48.996;20.804;2023-04-25T02:08:17;95355.88;;;9.61;100.00
75290;BME280;63883;48.996;20.804;2023-04-25T02:10:43;95345.69;;;9.61;100.00
75290;BME280;63883;48.996;20.804;2023-04-25T02:13:09;95348.41;;;9.58;100.00
75290;BME280;63883;48.996;20.804;2023-04-25T02:15:35;95345.97;;;9.55;100.00
75290;BME280;63883;48.996;20.804;2023-04-25T02:18:01;95347.63;;;9.56;100.00
75290;BME280;63883;48.996;20.804;2023-04-25T02:20:28;95349.19;;;9.58;100.00
75290;BME280;63883;48.996;20.804;2023-04-25T02:22:55;95347.34;;;9.62;100.00
75290;BME280;63883;48.996;20.804;2023-04-25T02:25:21;95341.56;;;9.58;100.00
75290;BME280;63883;48.996;20.804;2023-04-25T02:27:48;95352.66;;;9.57;100.00
75290;BME280;63883;48.996;20.804;2023-04-25T02:30:14;95353.72;;;9.52;100.00
75290;BME280;63883;48.996;20.804;2023-04-25T02:32:40;95351.19;;;9.52;100.00
75290;BME280;63883;48.996;20.804;2023-04-25T02:35:06;95352.16;;;9.49;100.00
75290;BME280;63883;48.996;20.804;2023-04-25T02:37:33;95356.41;;;9.49;100.00
75290;BME280;63883;48.996;20.804;2023-04-25T02:40:00;95355.72;;;9.45;100.00
75290;BME280;63883;48.996;20.804;2023-04-25T02:42:26;95358.47;;;9.40;100.00
75290;BME280;63883;48.996;20.804;2023-04-25T02:44:52;95351.59;;;9.43;100.00
75290;BME280;63883;48.996;20.804;2023-04-25T02:47:18;95345.78;;;9.39;100.00
75290;BME280;63883;48.996;20.804;2023-04-25T02:49:44;95349.78;;;9.45;100.00
75290;BME280;63883;48.996;20.804;2023-04-25T02:52:11;95349.94;;;9.42;100.00
75290;BME280;63883;48.996;20.804;2023-04-25T02:54:38;95350.88;;;9.39;100.00
75290;BME280;63883;48.996;20.804;2023-04-25T02:57:04;95351.72;;;9.39;100.00
75290;BME280;63883;48.996;20.804;2023-04-25T02:59:29;95343.31;;;9.37;100.00
75290;BME280;63883;48.996;20.804;2023-04-25T03:01:55;95342.56;;;9.35;100.00
75290;BME280;63883;48.996;20.804;2023-04-25T03:04:21;95355.34;;;9.34;100.00
75290;BME280;63883;48.996;20.804;2023-04-25T03:06:50;95343.44;;;9.34;100.00
75290;BME280;63883;48.996;20.804;2023-04-25T03:09:16;95343.25;;;9.39;100.00
75290;BME280;63883;48.996;20.804;2023-04-25T03:11:44;95349.22;;;9.38;100.00
75290;BME280;63883;48.996;20.804;2023-04-25T03:14:10;95349.72;;;9.46;100.00
75290;BME280;63883;48.996;20.804;2023-04-25T03:16:36;95344.53;;;9.49;100.00
75290;BME280;63883;48.996;20.804;2023-04-25T03:19:02;95335.84;;;9.53;100.00
75290;BME280;63883;48.996;20.804;2023-04-25T03:21:29;95337.81;;;9.47;100.00
75290;BME280;63883;48.996;20.804;2023-04-25T03:23:57;95331.91;;;9.46;100.00
75290;BME280;63883;48.996;20.804;2023-04-25T03:26:23;95342.97;;;9.45;100.00
75290;BME280;63883;48.996;20.804;2023-04-25T03:28:49;95334.09;;;9.35;100.00
75290;BME280;63883;48.996;20.804;2023-04-25T03:31:14;95349.50;;;9.32;100.00
75290;BME280;63883;48.996;20.804;2023-04-25T03:33:40;95346.31;;;9.27;100.00
75290;BME280;63883;48.996;20.804;2023-04-25T03:36:06;95350.69;;;9.23;100.00
75290;BME280;63883;48.996;20.804;2023-04-25T03:38:32;95349.94;;;9.21;100.00
75290;BME280;63883;48.996;20.804;2023-04-25T03:40:58;95347.41;;;9.21;100.00
75290;BME280;63883;48.996;20.804;2023-04-25T03:43:23;95350.69;;;9.23;100.00
75290;BME280;63883;48.996;20.804;2023-04-25T03:45:49;95351.72;;;9.19;100.00
75290;BME280;63883;48.996;20.804;2023-04-25T03:48:15;95351.53;;;9.24;100.00
75290;BME280;63883;48.996;20.804;2023-04-25T03:50:41;95349.75;;;9.26;100.00
75290;BME280;63883;48.996;20.804;2023-04-25T03:53:07;95348.16;;;9.23;100.00
75290;BME280;63883;48.996;20.804;2023-04-25T03:55:32;95354.28;;;9.19;100.00
75290;BME280;63883;48.996;20.804;2023-04-25T03:57:58;95352.72;;;9.15;100.00
75290;BME280;63883;48.996;20.804;2023-04-25T04:00:25;95362.84;;;9.17;100.00
75290;BME280;63883;48.996;20.804;2023-04-25T04:02:50;95361.06;;;9.19;100.00
75290;BME280;63883;48.996;20.804;2023-04-25T04:05:16;95354.28;;;9.19;100.00
75290;BME280;63883;48.996;20.804;2023-04-25T04:07:42;95360.25;;;9.18;100.00
75290;BME280;63883;48.996;20.804;2023-04-25T04:10:09;95361.97;;;9.18;100.00
75290;BME280;63883;48.996;20.804;2023-04-25T04:12:36;95364.50;;;9.18;100.00
75290;BME280;63883;48.996;20.804;2023-04-25T04:15:03;95365.28;;;9.20;100.00
75290;BME280;63883;48.996;20.804;2023-04-25T04:17:29;95366.16;;;9.19;100.00
75290;BME280;63883;48.996;20.804;2023-04-25T04:19:56;95367.81;;;9.20;100.00
75290;BME280;63883;48.996;20.804;2023-04-25T04:22:22;95367.75;;;9.21;100.00
75290;BME280;63883;48.996;20.804;2023-04-25T04:24:48;95369.53;;;9.19;100.00
75290;BME280;63883;48.996;20.804;2023-04-25T04:27:18;95366.84;;;9.22;100.00
75290;BME280;63883;48.996;20.804;2023-04-25T04:29:45;95374.41;;;9.24;100.00
75290;BME280;63883;48.996;20.804;2023-04-25T04:32:12;95372.69;;;9.24;100.00
75290;BME280;63883;48.996;20.804;2023-04-25T04:34:38;95372.69;;;9.24;100.00
75290;BME280;63883;48.996;20.804;2023-04-25T04:37:05;95379.44;;;9.25;100.00
75290;BME280;63883;48.996;20.804;2023-04-25T04:39:33;95374.25;;;9.28;100.00
75290;BME280;63883;48.996;20.804;2023-04-25T04:41:59;95374.16;;;9.30;100.00
75290;BME280;63883;48.996;20.804;2023-04-25T04:44:27;95375.13;;;9.27;100.00
75290;BME280;63883;48.996;20.804;2023-04-25T04:46:54;95381.94;;;9.27;100.00
75290;BME280;63883;48.996;20.804;2023-04-25T04:49:20;95374.25;;;9.28;100.00
75290;BME280;63883;48.996;20.804;2023-04-25T04:51:46;95379.19;;;9.31;100.00
75290;BME280;63883;48.996;20.804;2023-04-25T04:54:13;95376.66;;;9.31;100.00
75290;BME280;63883;48.996;20.804;2023-04-25T04:56:38;95377.34;;;9.35;100.00
75290;BME280;63883;48.996;20.804;2023-04-25T04:59:04;95376.59;;;9.33;100.00
75290;BME280;63883;48.996;20.804;2023-04-25T05:01:30;95379.75;;;9.38;100.00
75290;BME280;63883;48.996;20.804;2023-04-25T05:03:56;95386.34;;;9.44;100.00
75290;BME280;63883;48.996;20.804;2023-04-25T05:06:26;95376.06;;;9.45;99.62
75290;BME280;63883;48.996;20.804;2023-04-25T05:08:55;95381.03;;;9.48;99.24
75290;BME280;63883;48.996;20.804;2023-04-25T05:11:22;95383.38;;;9.53;99.11
75290;BME280;63883;48.996;20.804;2023-04-25T05:13:48;95366.44;;;9.52;98.76
75290;BME280;63883;48.996;20.804;2023-04-25T05:16:13;95375.69;;;9.54;98.34
75290;BME280;63883;48.996;20.804;2023-04-25T05:18:39;95378.16;;;9.56;98.61
75290;BME280;63883;48.996;20.804;2023-04-25T05:21:05;95373.13;;;9.54;98.50
75290;BME280;63883;48.996;20.804;2023-04-25T05:23:32;95378.09;;;9.57;98.34
75290;BME280;63883;48.996;20.804;2023-04-25T05:25:58;95373.50;;;9.65;96.02
75290;BME280;63883;48.996;20.804;2023-04-25T05:28:24;95381.34;;;9.61;94.49
75290;BME280;63883;48.996;20.804;2023-04-25T05:30:50;95384.81;;;9.58;93.99
75290;BME280;63883;48.996;20.804;2023-04-25T05:33:16;95390.00;;;9.57;91.77
75290;BME280;63883;48.996;20.804;2023-04-25T05:35:42;95393.44;;;9.56;91.91
75290;BME280;63883;48.996;20.804;2023-04-25T05:38:08;95387.25;;;9.61;91.29
75290;BME280;63883;48.996;20.804;2023-04-25T05:40:34;95381.06;;;9.67;90.78
75290;BME280;63883;48.996;20.804;2023-04-25T05:43:00;95385.41;;;9.65;86.63
75290;BME280;63883;48.996;20.804;2023-04-25T05:45:26;95392.03;;;9.69;86.78
75290;BME280;63883;48.996;20.804;2023-04-25T05:47:51;95381.91;;;9.67;84.38
75290;BME280;63883;48.996;20.804;2023-04-25T05:50:17;95389.47;;;9.69;85.72
75290;BME280;63883;48.996;20.804;2023-04-25T05:52:43;95390.50;;;9.65;86.84
75290;BME280;63883;48.996;20.804;2023-04-25T05:55:09;95383.81;;;9.62;86.90
75290;BME280;63883;48.996;20.804;2023-04-25T05:57:35;95396.59;;;9.61;87.21
75290;BME280;63883;48.996;20.804;2023-04-25T06:00:01;95384.91;;;9.57;87.81
75290;BME280;63883;48.996;20.804;2023-04-25T06:02:27;95387.38;;;9.58;87.50
75290;BME280;63883;48.996;20.804;2023-04-25T06:04:52;95392.63;;;9.55;88.38
75290;BME280;63883;48.996;20.804;2023-04-25T06:07:19;95388.63;;;9.50;87.14
75290;BME280;63883;48.996;20.804;2023-04-25T06:09:45;95391.91;;;9.52;88.43
75290;BME280;63883;48.996;20.804;2023-04-25T06:12:11;95393.50;;;9.54;88.07
75290;BME280;63883;48.996;20.804;2023-04-25T06:14:36;95389.84;;;9.60;88.62
75290;BME280;63883;48.996;20.804;2023-04-25T06:17:03;95393.94;;;9.64;87.47
75290;BME280;63883;48.996;20.804;2023-04-25T06:19:34;95395.09;;;9.57;88.93
75290;BME280;63883;48.996;20.804;2023-04-25T06:22:01;95386.44;;;9.61;88.25
75290;BME280;63883;48.996;20.804;2023-04-25T06:24:27;95391.19;;;9.68;87.09
75290;BME280;63883;48.996;20.804;2023-04-25T06:26:54;95403.25;;;9.65;86.37
75290;BME280;63883;48.996;20.804;2023-04-25T06:29:20;95405.97;;;9.60;87.33
75290;BME280;63883;48.996;20.804;2023-04-25T06:31:46;95404.03;;;9.65;85.75
75290;BME280;63883;48.996;20.804;2023-04-25T06:34:12;95407.91;;;9.74;85.91
75290;BME280;63883;48.996;20.804;2023-04-25T06:36:38;95405.09;;;9.80;85.31
75290;BME280;63883;48.996;20.804;2023-04-25T06:39:03;95398.38;;;9.79;85.05
75290;BME280;63883;48.996;20.804;2023-04-25T06:41:29;95407.84;;;9.75;82.77
75290;BME280;63883;48.996;20.804;2023-04-25T06:43:55;95398.16;;;9.84;84.17
75290;BME280;63883;48.996;20.804;2023-04-25T06:46:20;95406.31;;;9.92;85.63
75290;BME280;63883;48.996;20.804;2023-04-25T06:48:46;95403.69;;;9.93;80.84
75290;BME280;63883;48.996;20.804;2023-04-25T06:51:12;95404.09;;;10.03;84.59
75290;BME280;63883;48.996;20.804;2023-04-25T06:53:39;95409.19;;;10.03;83.72
75290;BME280;63883;48.996;20.804;2023-04-25T06:56:05;95403.66;;;10.13;81.68
75290;BME280;63883;48.996;20.804;2023-04-25T06:58:31;95398.41;;;10.16;79.00
75290;BME280;63883;48.996;20.804;2023-04-25T07:00:57;95400.84;;;10.20;79.16
75290;BME280;63883;48.996;20.804;2023-04-25T07:03:23;95404.84;;;10.25;79.68
75290;BME280;63883;48.996;20.804;2023-04-25T07:05:50;95408.44;;;10.21;76.33
75290;BME280;63883;48.996;20.804;2023-04-25T07:08:16;95404.81;;;10.06;77.64
75290;BME280;63883;48.996;20.804;2023-04-25T07:10:42;95413.34;;;10.05;76.45
75290;BME280;63883;48.996;20.804;2023-04-25T07:13:08;95412.78;;;9.99;78.87
75290;BME280;63883;48.996;20.804;2023-04-25T07:15:34;95410.81;;;10.05;77.37
75290;BME280;63883;48.996;20.804;2023-04-25T07:17:59;95413.63;;;9.99;77.21
75290;BME280;63883;48.996;20.804;2023-04-25T07:20:25;95417.44;;;9.89;76.27
75290;BME280;63883;48.996;20.804;2023-04-25T07:22:52;95415.94;;;9.85;76.94
75290;BME280;63883;48.996;20.804;2023-04-25T07:25:19;95419.75;;;9.75;77.53
75290;BME280;63883;48.996;20.804;2023-04-25T07:27:45;95425.69;;;9.75;78.77
75290;BME280;63883;48.996;20.804;2023-04-25T07:30:11;95424.09;;;9.73;77.14
75290;BME280;63883;48.996;20.804;2023-04-25T07:32:38;95428.16;;;9.77;77.31
75290;BME280;63883;48.996;20.804;2023-04-25T07:35:04;95433.00;;;9.83;77.59
75290;BME280;63883;48.996;20.804;2023-04-25T07:37:33;95431.97;;;9.87;76.54
75290;BME280;63883;48.996;20.804;2023-04-25T07:39:58;95434.72;;;9.83;75.46
75290;BME280;63883;48.996;20.804;2023-04-25T07:42:24;95428.53;;;9.88;75.84
75290;BME280;63883;48.996;20.804;2023-04-25T07:44:50;95434.00;;;9.99;76.35
75290;BME280;63883;48.996;20.804;2023-04-25T07:47:17;95434.00;;;9.99;75.88
75290;BME280;63883;48.996;20.804;2023-04-25T07:49:44;95434.94;;;9.97;74.84
75290;BME280;63883;48.996;20.804;2023-04-25T07:52:11;95431.78;;;9.92;75.93
75290;BME280;63883;48.996;20.804;2023-04-25T07:54:37;95436.59;;;9.98;76.56
75290;BME280;63883;48.996;20.804;2023-04-25T07:57:02;95438.31;;;9.97;75.32
75290;BME280;63883;48.996;20.804;2023-04-25T07:59:28;95435.72;;;9.99;76.42
75290;BME280;63883;48.996;20.804;2023-04-25T08:01:54;95440.56;;;9.85;75.94
75290;BME280;63883;48.996;20.804;2023-04-25T08:04:20;95443.19;;;9.83;77.52
75290;BME280;63883;48.996;20.804;2023-04-25T08:06:46;95432.69;;;9.70;76.37
75290;BME280;63883;48.996;20.804;2023-04-25T08:09:12;95437.34;;;9.61;77.96
75290;BME280;63883;48.996;20.804;2023-04-25T08:11:37;95443.19;;;9.63;78.49
75290;BME280;63883;48.996;20.804;2023-04-25T08:14:03;95444.28;;;9.57;77.06
75290;BME280;63883;48.996;20.804;2023-04-25T08:16:29;95440.84;;;9.58;77.65
75290;BME280;63883;48.996;20.804;2023-04-25T08:18:55;95450.31;;;9.55;77.78
75290;BME280;63883;48.996;20.804;2023-04-25T08:21:21;95448.34;;;9.41;78.06
75290;BME280;63883;48.996;20.804;2023-04-25T08:23:47;95448.53;;;9.36;80.06
75290;BME280;63883;48.996;20.804;2023-04-25T08:26:12;95454.69;;;9.31;80.60
75290;BME280;63883;48.996;20.804;2023-04-25T08:28:38;95448.16;;;9.25;79.81
75290;BME280;63883;48.996;20.804;2023-04-25T08:31:04;95446.53;;;9.23;79.98
75290;BME280;63883;48.996;20.804;2023-04-25T08:33:30;95450.78;;;9.22;79.86
75290;BME280;63883;48.996;20.804;2023-04-25T08:35:57;95457.81;;;9.37;79.59
75290;BME280;63883;48.996;20.804;2023-04-25T08:38:23;95457.69;;;9.40;79.74
75290;BME280;63883;48.996;20.804;2023-04-25T08:40:50;95458.59;;;9.39;79.91
75290;BME280;63883;48.996;20.804;2023-04-25T08:43:18;95462.78;;;9.40;81.13
75290;BME280;63883;48.996;20.804;2023-04-25T08:45:44;95460.00;;;9.47;80.13
75290;BME280;63883;48.996;20.804;2023-04-25T08:48:13;95464.88;;;9.51;79.87
75290;BME280;63883;48.996;20.804;2023-04-25T08:50:40;95468.97;;;9.55;79.95
75290;BME280;63883;48.996;20.804;2023-04-25T08:53:09;95474.00;;;9.57;79.88
75290;BME280;63883;48.996;20.804;2023-04-25T08:55:40;95473.28;;;9.53;79.47
75290;BME280;63883;48.996;20.804;2023-04-25T08:58:07;95479.09;;;9.57;80.19
75290;BME280;63883;48.996;20.804;2023-04-25T09:00:35;95479.00;;;9.58;81.19
75290;BME280;63883;48.996;20.804;2023-04-25T09:03:01;95478.06;;;9.61;81.10
75290;BME280;63883;48.996;20.804;2023-04-25T09:05:28;95483.88;;;9.64;81.95
75290;BME280;63883;48.996;20.804;2023-04-25T09:07:54;95482.78;;;9.70;81.24
75290;BME280;63883;48.996;20.804;2023-04-25T09:10:22;95478.78;;;9.64;81.60
75290;BME280;63883;48.996;20.804;2023-04-25T09:15:32;95486.53;;;9.82;81.22
75290;BME280;63883;48.996;20.804;2023-04-25T09:17:59;95493.44;;;9.79;79.48
75290;BME280;63883;48.996;20.804;2023-04-25T09:20:25;95490.78;;;9.81;79.46
75290;BME280;63883;48.996;20.804;2023-04-25T09:23:02;95489.78;;;9.85;78.66
75290;BME280;63883;48.996;20.804;2023-04-25T09:25:34;95492.19;;;9.88;78.43
75290;BME280;63883;48.996;20.804;2023-04-25T09:28:04;95490.78;;;9.81;78.13
75290;BME280;63883;48.996;20.804;2023-04-25T09:30:34;95497.16;;;9.91;78.46
75290;BME280;63883;48.996;20.804;2023-04-25T09:33:05;95497.75;;;9.98;78.05
75290;BME280;63883;48.996;20.804;2023-04-25T09:35:36;95493.72;;;10.12;77.31
75290;BME280;63883;48.996;20.804;2023-04-25T09:38:08;95501.28;;;10.14;74.90
75290;BME280;63883;48.996;20.804;2023-04-25T09:40:41;95499.06;;;10.27;75.32
75290;BME280;63883;48.996;20.804;2023-04-25T09:45:44;95498.53;;;10.39;76.14
75290;BME280;63883;48.996;20.804;2023-04-25T09:48:12;95498.41;;;10.42;74.21
75290;BME280;63883;48.996;20.804;2023-04-25T09:50:41;95498.63;;;10.37;75.06
75290;BME280;63883;48.996;20.804;2023-04-25T09:53:07;95493.31;;;10.42;74.94
75290;BME280;63883;48.996;20.804;2023-04-25T09:55:34;95499.63;;;10.33;74.65
75290;BME280;63883;48.996;20.804;2023-04-25T09:58:05;95502.59;;;10.43;72.55
75290;BME280;63883;48.996;20.804;2023-04-25T10:00:33;95497.78;;;10.55;74.06
75290;BME280;63883;48.996;20.804;2023-04-25T10:03:01;95492.69;;;10.55;72.45
75290;BME280;63883;48.996;20.804;2023-04-25T10:05:30;95498.94;;;10.30;72.77
75290;BME280;63883;48.996;20.804;2023-04-25T10:07:59;95494.19;;;10.41;75.09
75290;BME280;63883;48.996;20.804;2023-04-25T10:10:26;95492.75;;;10.35;73.82
75290;BME280;63883;48.996;20.804;2023-04-25T10:12:54;95492.66;;;10.18;73.85
75290;BME280;63883;48.996;20.804;2023-04-25T10:15:21;95494.34;;;10.17;76.20
75290;BME280;63883;48.996;20.804;2023-04-25T10:17:49;95501.63;;;10.27;75.21
75290;BME280;63883;48.996;20.804;2023-04-25T10:20:16;95499.06;;;10.27;73.91
75290;BME280;63883;48.996;20.804;2023-04-25T10:22:44;95483.38;;;10.36;74.25
75290;BME280;63883;48.996;20.804;2023-04-25T10:25:12;95486.44;;;10.44;73.31
75290;BME280;63883;48.996;20.804;2023-04-25T10:27:39;95490.13;;;10.37;72.88
75290;BME280;63883;48.996;20.804;2023-04-25T10:30:10;95491.53;;;10.44;74.67
75290;BME280;63883;48.996;20.804;2023-04-25T10:32:44;95486.53;;;10.22;72.30
75290;BME280;63883;48.996;20.804;2023-04-25T10:40:28;95485.88;;;10.37;72.80
75290;BME280;63883;48.996;20.804;2023-04-25T10:42:55;95488.88;;;10.27;71.69
75290;BME280;63883;48.996;20.804;2023-04-25T10:45:21;95482.91;;;10.07;73.87
75290;BME280;63883;48.996;20.804;2023-04-25T10:47:47;95488.09;;;10.04;74.18
75290;BME280;63883;48.996;20.804;2023-04-25T10:50:16;95474.53;;;10.24;75.08
75290;BME280;63883;48.996;20.804;2023-04-25T10:52:42;95487.25;;;10.44;71.98
75290;BME280;63883;48.996;20.804;2023-04-25T10:55:08;95485.66;;;10.42;74.10
75290;BME280;63883;48.996;20.804;2023-04-25T10:57:42;95493.03;;;10.48;72.10
75290;BME280;63883;48.996;20.804;2023-04-25T11:00:17;95485.72;;;10.40;72.81
75290;BME280;63883;48.996;20.804;2023-04-25T11:02:51;95484.59;;;10.27;72.28
75290;BME280;63883;48.996;20.804;2023-04-25T11:05:22;95498.44;;;10.22;73.31
75290;BME280;63883;48.996;20.804;2023-04-25T11:07:53;95502.66;;;10.23;73.83
75290;BME280;63883;48.996;20.804;2023-04-25T11:10:25;95492.75;;;10.15;72.69
75290;BME280;63883;48.996;20.804;2023-04-25T11:12:52;95496.03;;;9.98;75.06
75290;BME280;63883;48.996;20.804;2023-04-25T11:15:17;95495.06;;;10.01;73.59
75290;BME280;63883;48.996;20.804;2023-04-25T11:17:43;95503.13;;;10.10;72.23
75290;BME280;63883;48.996;20.804;2023-04-25T11:20:12;95501.13;;;9.98;73.08
75290;BME280;63883;48.996;20.804;2023-04-25T11:22:40;95504.19;;;9.86;72.65
75290;BME280;63883;48.996;20.804;2023-04-25T11:25:10;95504.88;;;9.90;74.90
75290;BME280;63883;48.996;20.804;2023-04-25T11:30:18;95498.44;;;9.81;75.31
75290;BME280;63883;48.996;20.804;2023-04-25T11:32:45;95499.22;;;9.83;74.80
75290;BME280;63883;48.996;20.804;2023-04-25T11:35:11;95503.53;;;9.81;74.62
75290;BME280;63883;48.996;20.804;2023-04-25T11:37:40;95498.75;;;9.73;74.19
75290;BME280;63883;48.996;20.804;2023-04-25T11:40:07;95497.19;;;9.71;74.84
75290;BME280;63883;48.996;20.804;2023-04-25T11:42:44;95496.97;;;9.75;73.99
75290;BME280;63883;48.996;20.804;2023-04-25T11:45:10;95490.69;;;9.84;76.70
75290;BME280;63883;48.996;20.804;2023-04-25T11:47:37;95497.28;;;9.88;74.97
75290;BME280;63883;48.996;20.804;2023-04-25T11:50:04;95500.09;;;9.82;73.61
75290;BME280;63883;48.996;20.804;2023-04-25T11:52:41;95488.69;;;9.91;74.82
75290;BME280;63883;48.996;20.804;2023-04-25T11:55:09;95497.81;;;9.76;73.68
75290;BME280;63883;48.996;20.804;2023-04-25T11:57:37;95505.28;;;9.59;74.06
75290;BME280;63883;48.996;20.804;2023-04-25T12:00:10;95508.31;;;9.26;75.75
75290;BME280;63883;48.996;20.804;2023-04-25T12:02:37;95501.94;;;9.16;77.79
75290;BME280;63883;48.996;20.804;2023-04-25T12:05:12;95505.53;;;9.11;77.38
75290;BME280;63883;48.996;20.804;2023-04-25T12:07:38;95511.84;;;9.22;79.03
75290;BME280;63883;48.996;20.804;2023-04-25T12:10:08;95511.41;;;9.13;78.33
75290;BME280;63883;48.996;20.804;2023-04-25T12:12:36;95504.75;;;9.09;77.70
75290;BME280;63883;48.996;20.804;2023-04-25T12:17:46;95508.72;;;9.37;74.14
75290;BME280;63883;48.996;20.804;2023-04-25T12:20:14;95509.41;;;9.21;76.75
75290;BME280;63883;48.996;20.804;2023-04-25T12:22:42;95507.91;;;9.15;74.09
75290;BME280;63883;48.996;20.804;2023-04-25T12:28:09;95505.50;;;9.12;76.64
75290;BME280;63883;48.996;20.804;2023-04-25T12:30:58;95506.91;;;9.19;75.61
75290;BME280;63883;48.996;20.804;2023-04-25T12:33:25;95514.34;;;9.02;75.05
75290;BME280;63883;48.996;20.804;2023-04-25T12:35:52;95521.25;;;8.77;74.70
75290;BME280;63883;48.996;20.804;2023-04-25T12:38:23;95523.53;;;8.61;75.25
75290;BME280;63883;48.996;20.804;2023-04-25T12:40:48;95513.75;;;8.50;75.51
75290;BME280;63883;48.996;20.804;2023-04-25T12:43:14;95525.84;;;8.44;76.42
75290;BME280;63883;48.996;20.804;2023-04-25T12:45:40;95518.63;;;8.56;76.01
75290;BME280;63883;48.996;20.804;2023-04-25T12:48:06;95520.78;;;8.67;76.13
75290;BME280;63883;48.996;20.804;2023-04-25T12:50:31;95515.91;;;8.61;78.42
75290;BME280;63883;48.996;20.804;2023-04-25T12:52:57;95522.66;;;8.62;77.77
75290;BME280;63883;48.996;20.804;2023-04-25T12:55:23;95522.47;;;8.67;77.32
75290;BME280;63883;48.996;20.804;2023-04-25T12:57:49;95515.41;;;8.51;78.00
75290;BME280;63883;48.996;20.804;2023-04-25T13:00:15;95520.56;;;8.50;76.11
75290;BME280;63883;48.996;20.804;2023-04-25T13:02:43;95516.53;;;8.44;76.52
75290;BME280;63883;48.996;20.804;2023-04-25T13:05:09;95512.13;;;8.49;77.67
75290;BME280;63883;48.996;20.804;2023-04-25T13:07:35;95515.91;;;8.61;76.75
75290;BME280;63883;48.996;20.804;2023-04-25T13:10:00;95521.19;;;8.56;78.78
75290;BME280;63883;48.996;20.804;2023-04-25T13:12:28;95518.72;;;8.77;77.90